Time;durP1;ratioP1;P1;durP2;ratioP2;P2;SDS_P1;SDS_P2;PMS_P1;PMS_P2;Temp;Humidity;BMP_temperature;BMP_pressure;BME280_temperature;BME280_humidity;BME280_pressure;Samples;Min_cycle;Max_cycle;Signal;HPM_P1;HPM_P2
2022/01/25 00:08:44;;;;;;;18.65;8.65;;;;;;;-2.26;63.08;94071.31;2067912;69;20551;-69
2022/01/25 00:27:14;;;;;;;15.07;8.32;;;;;;;-2.28;63.71;94070.31;2067812;69;20267;-69
2022/01/25 00:32:06;;;;;;;17.42;8.65;;;;;;;-2.28;62.63;94062.03;2067989;69;20210;-71
2022/01/25 00:34:32;;;;;;;15.57;7.78;;;;;;;-2.32;63.11;94074.03;2067621;69;20157;-68
2022/01/25 00:36:58;;;;;;;20.20;9.50;;;;;;;-2.43;63.53;94078.72;2067686;69;20589;-68
2022/01/25 00:39:24;;;;;;;20.00;9.60;;;;;;;-2.71;63.64;94073.81;2067785;69;20216;-67
2022/01/25 00:41:50;;;;;;;17.63;9.35;;;;;;;-2.51;63.60;94067.44;2067850;69;20180;-68
2022/01/25 00:44:16;;;;;;;20.98;8.30;;;;;;;-2.36;64.28;94072.75;2067916;69;20256;-67
2022/01/25 00:46:42;;;;;;;17.77;9.23;;;;;;;-2.28;63.05;94068.31;2068224;69;20156;-67
2022/01/25 00:49:09;;;;;;;19.40;8.55;;;;;;;-2.27;63.71;94069.06;2068129;69;20148;-67
2022/01/25 00:51:57;;;;;;;18.85;8.68;;;;;;;-2.45;63.62;94062.69;2067956;69;20601;-67
2022/01/25 00:56:54;;;;;;;20.75;8.15;;;;;;;-2.58;64.50;94067.88;2067688;69;20525;-67
2022/01/25 00:59:23;;;;;;;14.48;7.70;;;;;;;-2.48;63.23;94069.19;2064175;69;20230;-69
2022/01/25 01:01:51;;;;;;;19.10;7.88;;;;;;;-2.37;62.90;94065.75;2067810;69;20133;-68
2022/01/25 01:04:18;;;;;;;13.85;7.40;;;;;;;-2.39;62.48;94068.22;2067666;69;20168;-69
2022/01/25 01:06:46;;;;;;;16.13;7.95;;;;;;;-2.45;64.04;94065.44;2067607;69;20623;-71
2022/01/25 01:09:13;;;;;;;16.88;7.70;;;;;;;-2.52;63.96;94068.69;2067910;69;20529;-69
2022/01/25 01:11:50;;;;;;;13.68;7.22;;;;;;;-2.55;64.26;94077.94;2068032;69;20143;-72
2022/01/25 01:35:50;;;;;;;14.43;6.93;;;;;;;-2.70;63.47;94080.06;2067752;69;20177;-69
2022/01/25 01:48:58;;;;;;;15.52;7.05;;;;;;;-2.87;64.32;94080.72;2067706;69;20184;-68
2022/01/25 01:51:31;;;;;;;13.65;6.80;;;;;;;-2.83;64.61;94077.75;2067826;69;20145;-67
2022/01/25 01:54:00;;;;;;;13.23;6.53;;;;;;;-2.88;63.77;94079.22;2067746;69;20158;-68
2022/01/25 01:56:26;;;;;;;16.85;8.10;;;;;;;-2.82;63.65;94074.50;2067901;69;20158;-69
2022/01/25 01:58:55;;;;;;;17.25;8.15;;;;;;;-2.97;63.37;94073.13;2067943;69;20160;-69
2022/01/25 02:01:26;;;;;;;16.48;8.27;;;;;;;-2.85;62.86;94069.94;2067554;69;20161;-70
2022/01/25 02:03:53;;;;;;;22.13;9.48;;;;;;;-2.83;64.18;94064.72;2067826;69;20271;-69
2022/01/25 02:06:19;;;;;;;21.45;9.38;;;;;;;-2.81;63.22;94062.22;2063587;69;20605;-69
2022/01/25 02:08:45;;;;;;;14.60;7.35;;;;;;;-2.87;65.84;94060.69;2060824;69;20156;-69
2022/01/25 02:11:11;;;;;;;17.00;7.65;;;;;;;-2.80;64.36;94065.72;2063568;69;20153;-73
2022/01/25 02:13:40;;;;;;;15.05;7.40;;;;;;;-2.71;64.01;94053.75;2063181;69;20145;-69
2022/01/25 02:16:09;;;;;;;15.60;7.07;;;;;;;-2.68;64.59;94056.28;2063376;69;20203;-69
2022/01/25 02:24:04;;;;;;;15.80;6.93;;;;;;;-2.71;63.91;94051.00;2064534;69;20561;-70
2022/01/25 02:26:30;;;;;;;14.70;6.55;;;;;;;-2.76;64.02;94054.47;2061418;69;20621;-72
2022/01/25 02:28:56;;;;;;;14.18;6.05;;;;;;;-2.88;64.30;94057.16;2064685;69;20228;-70
2022/01/25 02:31:21;;;;;;;12.85;6.60;;;;;;;-2.93;64.70;94046.88;2064657;69;20688;-70
2022/01/25 02:33:47;;;;;;;13.73;6.78;;;;;;;-2.83;63.77;94050.94;2064792;69;20601;-71
2022/01/25 02:36:22;;;;;;;15.00;6.65;;;;;;;-3.00;64.93;94047.31;2064578;69;20152;-70
2022/01/25 02:38:48;;;;;;;15.05;6.30;;;;;;;-2.98;64.95;94049.56;2064569;69;20144;-70
2022/01/25 02:41:14;;;;;;;14.90;6.60;;;;;;;-2.93;63.69;94054.34;2065201;69;20152;-70
2022/01/25 02:43:43;;;;;;;15.68;6.45;;;;;;;-2.96;64.07;94042.31;2065279;69;20581;-73
2022/01/25 02:48:52;;;;;;;9.32;4.82;;;;;;;-2.73;63.83;94056.25;2065198;69;20310;-70
2022/01/25 02:51:19;;;;;;;12.02;5.60;;;;;;;-2.91;64.69;94044.38;2065345;69;20197;-69
2022/01/25 02:53:45;;;;;;;10.70;5.43;;;;;;;-2.86;63.26;94051.91;2065203;69;20253;-69
2022/01/25 02:56:16;;;;;;;10.82;5.10;;;;;;;-2.90;63.83;94045.13;2065178;69;20137;-69
2022/01/25 02:58:42;;;;;;;8.35;4.25;;;;;;;-2.89;64.01;94043.88;2065233;69;20137;-74
2022/01/25 03:01:08;;;;;;;10.85;4.90;;;;;;;-2.94;64.27;94048.09;2065249;69;20148;-73
2022/01/25 03:03:33;;;;;;;9.45;4.50;;;;;;;-2.90;64.37;94040.34;2065194;69;20151;-71
2022/01/25 03:05:59;;;;;;;9.85;4.95;;;;;;;-2.96;64.98;94042.31;2066437;69;20138;-68
2022/01/25 03:08:25;;;;;;;14.52;5.40;;;;;;;-2.96;64.71;94038.81;2068549;69;20147;-70
2022/01/25 03:10:50;;;;;;;11.82;5.22;;;;;;;-3.13;64.70;94039.44;2068531;69;20162;-70
2022/01/25 03:13:21;;;;;;;11.20;5.25;;;;;;;-3.21;64.15;94041.13;2068549;69;20152;-69
2022/01/25 03:18:41;;;;;;;10.38;5.38;;;;;;;-3.12;64.47;94042.94;2068572;69;20611;-69
2022/01/25 03:23:49;;;;;;;8.63;4.57;;;;;;;-2.92;64.25;94044.88;2068644;69;20220;-69
2022/01/25 03:26:15;;;;;;;10.23;4.85;;;;;;;-2.96;64.27;94045.09;2065231;69;20132;-68
2022/01/25 03:28:41;;;;;;;8.98;4.50;;;;;;;-2.91;64.12;94040.84;2068460;69;20156;-69
2022/01/25 03:31:07;;;;;;;11.27;4.93;;;;;;;-2.96;63.29;94041.56;2068480;69;20146;-69
2022/01/25 03:33:33;;;;;;;9.65;4.47;;;;;;;-2.87;63.96;94041.38;2068452;69;20489;-69
2022/01/25 03:35:59;;;;;;;7.60;4.15;;;;;;;-2.85;64.33;94042.38;2068484;69;20599;-68
2022/01/25 03:38:24;;;;;;;7.72;4.10;;;;;;;-2.97;64.57;94042.81;2068505;69;20172;-69
2022/01/25 03:40:50;;;;;;;8.52;4.28;;;;;;;-2.96;64.61;94038.81;2068686;69;20141;-68
2022/01/25 03:43:18;;;;;;;9.35;4.70;;;;;;;-3.06;63.88;94038.25;2068571;69;20208;-69
2022/01/25 03:45:56;;;;;;;9.10;4.50;;;;;;;-3.12;64.00;94031.94;2068443;69;20152;-71
2022/01/25 03:50:49;;;;;;;5.93;3.50;;;;;;;-2.97;64.08;94035.31;2064890;69;20148;-71
2022/01/25 03:53:16;;;;;;;7.20;3.55;;;;;;;-3.10;64.70;94037.72;2068455;69;20145;-73
2022/01/25 03:55:43;;;;;;;10.13;4.60;;;;;;;-3.24;65.35;94036.63;2068527;69;20241;-71
2022/01/25 03:58:09;;;;;;;9.73;4.60;;;;;;;-3.16;65.10;94042.41;2068419;69;20257;-72
2022/01/25 04:00:37;;;;;;;8.48;4.03;;;;;;;-3.21;64.50;94032.84;2068455;69;20160;-71
2022/01/25 04:03:16;;;;;;;6.68;3.70;;;;;;;-3.26;64.48;94030.06;2068379;69;20157;-69
2022/01/25 04:08:08;;;;;;;8.13;3.55;;;;;;;-3.16;64.14;94034.94;2068364;69;20175;-71
2022/01/25 04:10:34;;;;;;;8.27;3.90;;;;;;;-3.18;64.40;94022.88;2068447;69;20164;-70
2022/01/25 04:13:00;;;;;;;9.85;4.20;;;;;;;-3.07;64.86;94029.22;2068397;69;20148;-70
2022/01/25 04:15:26;;;;;;;7.95;3.83;;;;;;;-3.11;65.73;94022.44;2068413;69;20168;-69
2022/01/25 04:18:18;;;;;;;10.65;3.80;;;;;;;-3.34;64.75;94024.28;2065076;69;20128;-69
2022/01/25 04:20:38;;;;;;;10.10;4.00;;;;;;;-3.27;65.24;94017.53;2068030;69;20521;-69
2022/01/25 04:25:48;;;;;;;10.18;4.22;;;;;;;-3.22;64.48;94027.84;2068513;69;20149;-69
2022/01/25 04:28:14;;;;;;;9.73;4.07;;;;;;;-3.34;65.02;94032.53;2068413;69;20141;-70
2022/01/25 04:30:39;;;;;;;6.90;3.40;;;;;;;-3.32;64.46;94033.53;2068375;69;20616;-74
2022/01/25 04:33:17;;;;;;;8.68;4.50;;;;;;;-3.34;65.14;94033.28;2068349;69;20552;-73
2022/01/25 04:35:44;;;;;;;8.77;3.95;;;;;;;-3.21;64.60;94032.09;2068247;69;20141;-69
2022/01/25 04:56:38;;;;;;;11.35;6.18;;;;;;;-3.17;65.24;94021.63;2068366;69;20137;-70
2022/01/25 05:01:29;;;;;;;11.10;5.53;;;;;;;-3.23;64.84;94020.84;2068139;69;20145;-69
2022/01/25 05:04:09;;;;;;;12.88;6.65;;;;;;;-3.35;64.49;94022.75;2068155;69;20132;-70
2022/01/25 05:06:35;;;;;;;14.27;6.65;;;;;;;-3.50;65.01;94017.38;2068405;69;20243;-69
2022/01/25 05:09:12;;;;;;;16.50;7.13;;;;;;;-3.62;65.41;94019.28;2068288;69;20536;-69
2022/01/25 05:11:44;;;;;;;13.57;6.57;;;;;;;-3.49;65.15;94012.59;2068263;69;20156;-69
2022/01/25 05:17:00;;;;;;;14.70;6.97;;;;;;;-3.38;64.70;94018.22;2068434;69;20149;-69
2022/01/25 05:22:04;;;;;;;13.15;6.43;;;;;;;-3.39;64.98;94017.47;2068224;69;20281;-69
2022/01/25 05:22:27;;;;;;;15.40;7.10;;;;;;;-3.28;64.83;94022.31;2068259;69;20129;-69
2022/01/25 05:24:53;;;;;;;15.73;7.28;;;;;;;-3.12;64.87;94021.66;2068280;69;20152;-70
2022/01/25 05:27:21;;;;;;;13.05;7.18;;;;;;;-3.44;65.00;94011.91;2068382;69;20148;-70
2022/01/25 05:29:46;;;;;;;15.40;7.07;;;;;;;-3.62;65.69;94013.78;2064904;69;20579;-69
2022/01/25 05:32:12;;;;;;;15.25;7.57;;;;;;;-3.69;66.30;94013.44;2068212;69;20133;-70
2022/01/25 05:34:38;;;;;;;17.77;7.20;;;;;;;-3.58;64.99;94013.53;2068144;69;20139;-69
2022/01/25 05:37:06;;;;;;;13.98;6.85;;;;;;;-3.35;64.49;94014.47;2068380;69;20198;-69
2022/01/25 05:39:34;;;;;;;12.50;6.68;;;;;;;-3.41;66.58;94013.69;2068191;69;20154;-69
2022/01/25 05:44:58;;;;;;;13.32;7.00;;;;;;;-3.30;65.41;94024.03;2064341;69;20190;-70
2022/01/25 05:47:29;;;;;;;13.60;6.90;;;;;;;-3.19;66.01;94022.13;2068191;69;20614;-70
2022/01/25 05:49:55;;;;;;;13.10;6.60;;;;;;;-3.07;64.45;94012.72;2068036;69;20632;-71
2022/01/25 05:52:21;;;;;;;12.77;6.32;;;;;;;-3.20;66.56;94023.38;2068195;69;20145;-71
2022/01/25 05:54:47;;;;;;;15.60;7.70;;;;;;;-3.18;65.25;94012.59;2068207;69;20154;-72
2022/01/25 05:57:12;;;;;;;12.32;6.53;;;;;;;-3.14;64.00;94017.91;2068156;69;20228;-70
2022/01/25 05:59:40;;;;;;;18.02;8.25;;;;;;;-3.11;64.80;94019.69;2068183;69;20144;-71
2022/01/25 06:02:06;;;;;;;16.15;7.20;;;;;;;-3.03;65.11;94022.72;2068275;69;20727;-70
2022/01/25 06:04:32;;;;;;;13.90;6.13;;;;;;;-3.04;66.21;94021.22;2068071;69;20675;-71
2022/01/25 06:06:58;;;;;;;15.13;6.78;;;;;;;-3.12;64.89;94027.16;2068133;69;20207;-73
2022/01/25 06:09:24;;;;;;;17.73;7.50;;;;;;;-3.37;66.66;94017.72;2068135;69;20247;-72
2022/01/25 06:11:54;;;;;;;16.35;7.93;;;;;;;-3.35;66.19;94019.97;2068304;69;20201;-71
2022/01/25 06:14:20;;;;;;;18.60;8.93;;;;;;;-3.48;66.50;94022.38;2068492;69;20144;-73
2022/01/25 06:16:46;;;;;;;25.17;10.93;;;;;;;-3.53;66.07;94012.81;2068685;69;20250;-69
2022/01/25 06:19:12;;;;;;;22.27;10.10;;;;;;;-3.45;65.26;94013.91;2068531;69;20227;-69
2022/01/25 06:21:38;;;;;;;22.17;9.35;;;;;;;-3.47;65.63;94010.13;2068642;69;20141;-73
2022/01/25 06:24:03;;;;;;;17.02;7.88;;;;;;;-3.37;65.89;94014.97;2068727;69;20149;-75
2022/01/25 06:26:29;;;;;;;20.77;8.60;;;;;;;-3.44;65.38;94022.91;2068780;69;20152;-73
2022/01/25 06:28:55;;;;;;;19.40;9.30;;;;;;;-3.36;65.17;94015.72;2068617;69;20141;-75
2022/01/25 06:31:21;;;;;;;30.92;15.48;;;;;;;-3.23;64.69;94023.59;2068834;69;20296;-70
2022/01/25 06:33:48;;;;;;;35.78;17.65;;;;;;;-3.21;65.50;94024.59;2065274;69;20144;-70
2022/01/25 06:36:14;;;;;;;27.08;12.00;;;;;;;-3.40;65.26;94031.72;2068510;69;20228;-68
2022/01/25 06:38:41;;;;;;;25.15;12.52;;;;;;;-3.45;65.39;94022.16;2068620;69;20148;-69
2022/01/25 06:41:09;;;;;;;25.38;13.48;;;;;;;-3.40;64.62;94031.72;2068814;69;20157;-68
2022/01/25 06:43:35;;;;;;;27.33;12.75;;;;;;;-3.44;65.39;94033.94;2068567;69;20148;-69
2022/01/25 06:46:03;;;;;;;28.42;12.50;;;;;;;-3.36;65.29;94035.00;2068672;69;20156;-69
2022/01/25 06:48:30;;;;;;;24.20;12.05;;;;;;;-3.36;64.60;94033.00;2068621;69;20155;-69
2022/01/25 06:50:56;;;;;;;54.75;19.67;;;;;;;-3.32;64.36;94032.78;2068451;69;20258;-70
2022/01/25 06:53:22;;;;;;;77.75;31.40;;;;;;;-3.35;66.25;94036.50;2068572;69;20159;-69
2022/01/25 06:55:47;;;;;;;67.20;27.70;;;;;;;-3.27;66.16;94040.34;2068697;69;20152;-70
2022/01/25 06:58:13;;;;;;;41.28;19.02;;;;;;;-3.23;66.44;94037.38;2068668;69;20512;-71
2022/01/25 07:00:39;;;;;;;50.05;21.35;;;;;;;-3.33;66.15;94047.81;2068578;69;20190;-70
2022/01/25 07:03:06;;;;;;;53.03;20.55;;;;;;;-3.26;65.88;94035.56;2068541;69;20148;-72
2022/01/25 07:05:32;;;;;;;46.65;19.90;;;;;;;-3.34;65.41;94038.78;2068489;69;20604;-73
2022/01/25 07:07:58;;;;;;;43.45;18.85;;;;;;;-3.39;65.95;94052.50;2065233;69;20216;-71
2022/01/25 07:10:24;;;;;;;38.53;17.23;;;;;;;-3.33;66.24;94050.56;2068558;69;20481;-71
2022/01/25 07:12:50;;;;;;;40.03;18.27;;;;;;;-3.35;65.36;94053.78;2068513;69;20603;-71
2022/01/25 07:15:15;;;;;;;40.25;18.25;;;;;;;-3.28;66.12;94052.59;2068532;69;20650;-70
2022/01/25 07:17:41;;;;;;;37.50;17.75;;;;;;;-3.32;65.77;94043.81;2068519;69;20577;-69
2022/01/25 07:20:08;;;;;;;35.38;16.27;;;;;;;-3.33;65.90;94048.56;2068367;69;20144;-70
2022/01/25 07:22:35;;;;;;;36.85;17.48;;;;;;;-3.32;65.71;94055.56;2068492;69;20145;-70
2022/01/25 07:25:01;;;;;;;42.60;19.27;;;;;;;-3.31;65.48;94045.31;2068269;69;20240;-69
2022/01/25 07:27:27;;;;;;;44.95;20.42;;;;;;;-3.36;65.84;94049.53;2068518;69;20672;-69
2022/01/25 07:29:52;;;;;;;43.70;20.65;;;;;;;-3.33;66.22;94051.31;2068622;69;20159;-71
2022/01/25 07:32:18;;;;;;;46.35;21.35;;;;;;;-3.26;65.47;94047.34;2068575;69;20139;-72
2022/01/25 07:34:44;;;;;;;49.13;25.33;;;;;;;-3.13;65.97;94046.97;2068365;69;20634;-71
2022/01/25 07:37:09;;;;;;;44.58;23.08;;;;;;;-3.05;65.53;94048.03;2068527;69;20613;-71
2022/01/25 07:39:35;;;;;;;51.22;25.77;;;;;;;-3.04;65.12;94048.78;2068437;69;20224;-75
2022/01/25 07:42:01;;;;;;;48.40;25.20;;;;;;;-3.14;67.10;94037.94;2065115;69;20149;-74
2022/01/25 07:44:38;;;;;;;44.65;24.08;;;;;;;-3.10;66.39;94041.22;2065185;69;20148;-71
2022/01/25 07:47:05;;;;;;;48.83;24.35;;;;;;;-3.04;66.21;94040.50;2065214;69;20151;-72
2022/01/25 07:49:30;;;;;;;42.40;21.67;;;;;;;-3.00;65.94;94036.28;2062240;69;20197;-70
2022/01/25 07:51:56;;;;;;;43.10;22.85;;;;;;;-2.97;66.11;94029.06;2068432;69;20268;-71
2022/01/25 07:54:22;;;;;;;43.25;23.58;;;;;;;-3.12;67.59;94037.44;2068545;69;20148;-71
2022/01/25 07:56:48;;;;;;;51.60;23.17;;;;;;;-3.01;66.83;94031.28;2068310;69;20136;-69
2022/01/25 07:59:14;;;;;;;47.22;22.83;;;;;;;-3.11;66.53;94041.72;2068438;69;20152;-70
2022/01/25 08:01:40;;;;;;;44.38;22.30;;;;;;;-3.01;66.82;94032.03;2068468;69;20151;-75
2022/01/25 08:04:08;;;;;;;44.22;22.35;;;;;;;-2.93;66.02;94043.34;2064929;69;20157;-75
2022/01/25 08:06:34;;;;;;;36.75;19.80;;;;;;;-2.86;65.95;94037.38;2068327;69;20152;-73
2022/01/25 08:09:01;;;;;;;38.35;21.83;;;;;;;-3.00;67.02;94043.78;2068324;69;20151;-71
2022/01/25 08:11:27;;;;;;;44.35;22.52;;;;;;;-2.96;66.40;94053.34;2068425;69;20141;-76
2022/01/25 08:14:00;;;;;;;41.95;21.27;;;;;;;-2.97;66.48;94048.34;2068532;69;20678;-73
2022/01/25 08:16:26;;;;;;;42.72;21.33;;;;;;;-2.84;66.18;94040.38;2068395;69;20261;-73
2022/01/25 08:18:51;;;;;;;35.95;19.52;;;;;;;-2.88;66.23;94040.63;2068314;69;20604;-74
2022/01/25 08:21:17;;;;;;;43.03;20.95;;;;;;;-2.88;65.54;94043.38;2064968;69;20143;-71
2022/01/25 08:23:42;;;;;;;41.08;21.55;;;;;;;-2.83;66.04;94033.66;2068416;69;20244;-72
2022/01/25 08:26:08;;;;;;;49.28;24.75;;;;;;;-2.81;65.93;94037.41;2068445;69;20512;-70
2022/01/25 08:28:34;;;;;;;49.13;26.17;;;;;;;-2.75;66.53;94036.69;2068340;69;20169;-70
2022/01/25 08:30:59;;;;;;;55.60;27.92;;;;;;;-2.69;65.67;94038.25;2068354;69;20148;-70
2022/01/25 08:33:25;;;;;;;57.85;29.38;;;;;;;-2.62;65.94;94029.50;2068330;69;20144;-70
2022/01/25 08:35:51;;;;;;;51.88;27.83;;;;;;;-2.61;66.27;94027.53;2068156;69;20513;-70
2022/01/25 08:38:17;;;;;;;70.07;37.88;;;;;;;-2.54;65.92;94029.78;2068433;69;20136;-70
2022/01/25 08:40:42;;;;;;;58.88;30.27;;;;;;;-2.66;66.98;94025.47;2065030;69;20141;-70
2022/01/25 08:43:08;;;;;;;59.45;31.05;;;;;;;-2.63;65.97;94030.75;2068456;69;20198;-70
2022/01/25 08:45:33;;;;;;;62.92;31.10;;;;;;;-2.16;65.84;94027.69;2068312;69;20584;-75
2022/01/25 08:47:59;;;;;;;63.65;31.83;;;;;;;-1.78;66.30;94026.31;2068285;69;20300;-73
2022/01/25 08:50:25;;;;;;;67.25;35.38;;;;;;;-1.52;64.81;94028.88;2068229;69;20156;-71
2022/01/25 08:52:51;;;;;;;83.95;43.25;;;;;;;-1.10;67.16;94030.69;2068298;69;20725;-71
2022/01/25 08:55:17;;;;;;;95.22;45.60;;;;;;;-0.74;65.96;94030.13;2068234;69;20133;-70
2022/01/25 08:57:42;;;;;;;95.35;46.45;;;;;;;-0.65;65.55;94035.38;2064923;69;20148;-71
2022/01/25 09:00:11;;;;;;;78.90;42.45;;;;;;;-0.24;65.60;94023.72;2064928;69;20222;-70
2022/01/25 09:02:37;;;;;;;88.55;44.95;;;;;;;0.09;64.81;94028.38;2068299;69;20148;-69
2022/01/25 09:05:04;;;;;;;75.53;39.40;;;;;;;0.45;64.29;94018.84;2068114;69;20160;-69
2022/01/25 09:07:30;;;;;;;85.93;36.80;;;;;;;0.69;63.00;94023.00;2068415;69;20149;-74
2022/01/25 09:09:55;;;;;;;69.55;29.83;;;;;;;0.82;63.42;94019.63;2068224;69;20167;-70
2022/01/25 09:12:21;;;;;;;79.03;28.75;;;;;;;1.06;63.06;94016.91;2068264;69;20133;-71
2022/01/25 09:14:46;;;;;;;70.85;28.85;;;;;;;1.40;62.53;94022.16;2068229;69;20153;-72
2022/01/25 09:17:13;;;;;;;62.90;27.65;;;;;;;1.78;61.79;94021.00;2068445;69;20198;-71
2022/01/25 09:19:38;;;;;;;54.88;24.20;;;;;;;1.85;61.58;94022.44;2068125;69;20137;-73
2022/01/25 09:22:08;;;;;;;54.08;24.35;;;;;;;2.17;61.27;94024.59;2068245;69;20143;-71
2022/01/25 09:24:37;;;;;;;50.90;22.13;;;;;;;2.49;59.45;94019.13;2068379;69;20149;-73
2022/01/25 09:27:04;;;;;;;49.08;20.25;;;;;;;2.80;58.67;94018.44;2068248;69;20605;-70
2022/01/25 09:29:30;;;;;;;44.97;19.75;;;;;;;3.26;59.13;94019.22;2068235;69;20211;-70
2022/01/25 09:31:55;;;;;;;22.58;10.10;;;;;;;2.95;58.88;94017.94;2068257;69;20255;-69
2022/01/25 09:34:23;;;;;;;49.63;18.40;;;;;;;3.43;57.97;94026.53;2068248;69;20144;-70
2022/01/25 09:36:50;;;;;;;49.83;21.52;;;;;;;3.32;56.92;94030.25;2068192;69;20144;-70
2022/01/25 09:39:16;;;;;;;49.10;21.25;;;;;;;3.70;56.38;94030.84;2068318;69;20183;-70
2022/01/25 09:41:42;;;;;;;54.25;26.77;;;;;;;4.12;56.31;94030.34;2068200;69;20129;-72
2022/01/25 09:44:08;;;;;;;26.15;10.93;;;;;;;4.19;54.17;94036.03;2068210;69;20231;-73
2022/01/25 09:46:34;;;;;;;25.40;12.10;;;;;;;4.19;54.01;94029.69;2068253;69;20227;-74
2022/01/25 09:48:59;;;;;;;43.22;18.50;;;;;;;4.63;53.20;94028.03;2068395;69;20307;-73
2022/01/25 09:51:26;;;;;;;34.70;16.88;;;;;;;4.74;51.79;94030.56;2068678;69;20152;-75
2022/01/25 09:53:52;;;;;;;30.20;14.85;;;;;;;5.58;52.96;94030.63;2065318;69;20662;-72
2022/01/25 09:56:18;;;;;;;41.95;18.77;;;;;;;5.59;52.32;94023.75;2068735;69;20244;-72
2022/01/25 09:58:44;;;;;;;29.20;13.10;;;;;;;5.72;51.67;94028.50;2068750;69;20155;-73
2022/01/25 10:01:11;;;;;;;25.70;11.60;;;;;;;6.09;52.30;94022.47;2068598;69;20509;-72
2022/01/25 10:03:39;;;;;;;18.00;8.48;;;;;;;6.40;50.24;94021.88;2068763;69;20307;-68
2022/01/25 10:06:23;;;;;;;13.40;6.78;;;;;;;6.35;48.47;94021.47;2068496;69;20152;-68
2022/01/25 10:08:52;;;;;;;14.13;7.60;;;;;;;6.58;48.07;94021.56;2068655;69;20148;-70
2022/01/25 10:11:21;;;;;;;12.65;7.50;;;;;;;7.30;47.29;94020.66;2068620;69;20184;-69
2022/01/25 10:13:51;;;;;;;12.38;6.78;;;;;;;7.00;46.25;94012.94;2068623;69;20160;-68
2022/01/25 10:16:18;;;;;;;14.57;7.60;;;;;;;7.13;45.89;94010.00;2068940;69;20195;-68
2022/01/25 10:18:51;;;;;;;13.25;6.80;;;;;;;7.65;45.98;94007.03;2068639;69;20159;-69
2022/01/25 10:21:20;;;;;;;11.85;5.70;;;;;;;7.87;45.19;94008.34;2068628;69;20188;-68
2022/01/25 10:24:07;;;;;;;11.95;5.00;;;;;;;7.97;44.01;94014.91;2068746;69;20160;-70
2022/01/25 10:26:56;;;;;;;9.95;5.00;;;;;;;8.46;43.41;93999.66;2068663;69;20176;-72
2022/01/25 10:29:34;;;;;;;6.70;4.03;;;;;;;8.67;41.60;93999.41;2068488;69;20144;-70
2022/01/25 10:32:10;;;;;;;6.43;4.50;;;;;;;9.27;40.56;93999.66;2068593;69;20604;-70
2022/01/25 10:34:45;;;;;;;6.70;3.90;;;;;;;9.15;40.42;93999.34;2068521;69;20168;-71
2022/01/25 10:37:14;;;;;;;6.40;3.88;;;;;;;8.69;42.14;94002.38;2065263;69;20587;-70
2022/01/25 10:39:42;;;;;;;10.98;6.80;;;;;;;8.90;40.62;93999.31;2065345;69;20136;-74
2022/01/25 10:42:18;;;;;;;6.53;4.15;;;;;;;9.07;40.49;93995.84;2068582;69;20153;-70
2022/01/25 10:44:47;;;;;;;6.75;4.32;;;;;;;9.65;40.75;93994.50;2065306;69;20137;-71
2022/01/25 10:47:13;;;;;;;6.35;4.07;;;;;;;9.99;39.68;93993.13;2068550;69;20228;-72
2022/01/25 10:49:50;;;;;;;7.70;4.50;;;;;;;10.31;37.33;93995.09;2068429;69;20232;-72
2022/01/25 10:52:27;;;;;;;5.63;2.80;;;;;;;10.12;36.51;93987.16;2068585;69;20569;-70
2022/01/25 10:54:53;;;;;;;9.95;5.65;;;;;;;10.53;37.92;93995.41;2068628;69;20295;-72
2022/01/25 10:57:21;;;;;;;9.18;6.07;;;;;;;11.14;36.97;93991.88;2068552;69;20256;-72
2022/01/25 10:59:58;;;;;;;10.85;6.15;;;;;;;11.81;36.83;93996.31;2068510;69;20284;-75
2022/01/25 11:02:24;;;;;;;9.15;5.35;;;;;;;12.46;35.24;93987.91;2068595;69;20591;-73
2022/01/25 11:04:51;;;;;;;6.72;3.95;;;;;;;12.19;33.92;93982.38;2068514;69;20152;-77
2022/01/25 11:07:17;;;;;;;5.68;3.92;;;;;;;12.41;33.58;93986.09;2068654;69;20160;-76
2022/01/25 11:09:46;;;;;;;4.32;2.65;;;;;;;14.18;32.29;93971.72;2068603;69;20148;-73
2022/01/25 11:12:17;;;;;;;5.00;2.50;;;;;;;15.01;31.38;93973.69;2068750;69;20165;-73
2022/01/25 11:14:50;;;;;;;6.45;2.20;;;;;;;15.51;30.53;93966.91;2068719;69;20144;-73
2022/01/25 11:17:30;;;;;;;8.93;2.40;;;;;;;16.26;27.63;93965.09;2068898;69;20667;-72
2022/01/25 11:19:57;;;;;;;2.67;2.38;;;;;;;17.76;27.70;93963.72;2068544;69;20536;-72
2022/01/25 11:22:24;;;;;;;11.93;6.00;;;;;;;18.70;26.20;93966.53;2068685;69;20168;-72
2022/01/25 11:24:56;;;;;;;8.38;4.45;;;;;;;19.42;24.65;93953.63;2068517;69;20152;-71
2022/01/25 11:27:23;;;;;;;7.68;4.20;;;;;;;19.28;23.86;93952.94;2068549;69;20156;-71
2022/01/25 11:29:51;;;;;;;13.57;7.28;;;;;;;19.98;23.71;93951.28;2068465;69;20155;-73
2022/01/25 11:32:21;;;;;;;10.43;5.70;;;;;;;20.27;24.63;93956.88;2065300;69;20164;-75
2022/01/25 11:34:47;;;;;;;4.68;3.30;;;;;;;21.55;21.95;93950.13;2068349;69;20171;-74
2022/01/25 11:37:14;;;;;;;7.22;1.73;;;;;;;21.02;21.96;93936.50;2068507;69;20152;-77
2022/01/25 11:39:44;;;;;;;3.20;1.70;;;;;;;21.70;21.96;93937.09;2068538;69;20536;-79
2022/01/25 11:42:18;;;;;;;2.05;1.30;;;;;;;22.60;21.01;93931.84;2068576;69;20144;-74
2022/01/25 11:44:55;;;;;;;2.65;1.73;;;;;;;20.88;21.06;93924.47;2068505;69;20147;-75
2022/01/25 11:47:29;;;;;;;2.30;1.52;;;;;;;22.32;20.07;93925.84;2068507;69;20252;-77
2022/01/25 11:50:03;;;;;;;2.35;1.40;;;;;;;22.59;20.66;93927.50;2068453;69;20144;-76
2022/01/25 11:52:30;;;;;;;2.05;1.30;;;;;;;22.66;20.98;93925.59;2068629;69;20497;-73
2022/01/25 11:55:27;;;;;;;4.45;1.90;;;;;;;21.61;20.62;93914.50;2068404;69;20140;-73
2022/01/25 11:58:13;;;;;;;2.65;1.63;;;;;;;22.43;20.61;93909.72;2068493;69;20613;-73
2022/01/25 12:00:44;;;;;;;3.13;1.65;;;;;;;22.67;19.66;93904.09;2068570;69;20160;-73
2022/01/25 12:03:30;;;;;;;7.45;2.47;;;;;;;19.66;21.89;93904.78;2068663;69;20157;-73
2022/01/25 12:06:09;;;;;;;12.75;4.60;;;;;;;16.19;25.20;93900.78;2068318;69;20186;-73
2022/01/25 12:09:06;;;;;;;15.98;9.60;;;;;;;14.73;27.19;93885.44;2068460;69;20236;-74
2022/01/25 12:11:39;;;;;;;21.33;9.85;;;;;;;14.77;27.95;93881.41;2068361;69;20694;-73
2022/01/25 12:14:17;;;;;;;44.03;30.33;;;;;;;14.17;29.04;93879.63;2068600;69;20133;-76
2022/01/25 12:16:46;;;;;;;48.83;33.67;;;;;;;13.31;30.01;93876.66;2068623;69;20149;-77
2022/01/25 12:19:15;;;;;;;64.38;40.10;;;;;;;12.48;31.05;93862.28;2068388;69;20597;-71
2022/01/25 12:21:51;;;;;;;75.07;46.05;;;;;;;12.62;31.57;93863.31;2068436;69;20151;-71
2022/01/25 12:24:38;;;;;;;53.72;32.42;;;;;;;12.41;31.33;93853.34;2068602;69;20169;-69
2022/01/25 12:27:29;;;;;;;53.35;21.45;;;;;;;11.31;33.06;93850.84;2068437;69;20168;-73
2022/01/25 12:30:16;;;;;;;67.22;33.17;;;;;;;10.16;35.11;93846.78;2068339;69;20132;-76
2022/01/25 12:32:50;;;;;;;49.00;25.77;;;;;;;10.21;35.75;93842.25;2068419;69;20148;-74
2022/01/25 12:35:18;;;;;;;48.50;24.27;;;;;;;10.08;35.95;93836.97;2068282;69;20133;-76
2022/01/25 12:37:44;;;;;;;42.92;16.45;;;;;;;9.04;36.72;93836.88;2068517;69;20628;-71
2022/01/25 12:40:26;;;;;;;26.08;12.27;;;;;;;9.36;36.34;93845.22;2068429;69;20230;-76
2022/01/25 12:42:58;;;;;;;26.63;8.17;;;;;;;8.96;37.39;93836.94;2067809;69;20145;-73
2022/01/25 12:45:26;;;;;;;27.10;10.60;;;;;;;8.72;38.07;93841.22;2070237;69;20551;-71
2022/01/25 12:47:54;;;;;;;25.90;10.82;;;;;;;8.79;38.09;93828.44;2070981;69;20148;-70
2022/01/25 12:50:20;;;;;;;41.90;15.80;;;;;;;8.45;38.50;93829.03;2071371;69;20302;-73
2022/01/25 12:52:46;;;;;;;48.30;19.67;;;;;;;8.15;39.37;93822.25;2071711;69;20215;-69
2022/01/25 12:55:13;;;;;;;42.47;18.45;;;;;;;8.09;39.37;93824.53;2071550;69;20154;-70
2022/01/25 12:57:46;;;;;;;33.45;16.70;;;;;;;7.69;40.13;93814.00;2071296;69;20599;-68
2022/01/25 13:00:14;;;;;;;37.72;13.88;;;;;;;7.59;41.19;93811.06;2071188;69;20153;-69
2022/01/25 13:02:40;;;;;;;36.10;18.85;;;;;;;7.21;40.77;93810.41;2071322;69;20228;-68
2022/01/25 13:05:17;;;;;;;42.63;19.35;;;;;;;7.42;41.09;93807.34;2071059;69;20270;-70
2022/01/25 13:07:43;;;;;;;77.20;35.60;;;;;;;6.96;42.08;93807.44;2071499;69;20145;-68
2022/01/25 13:10:11;;;;;;;90.93;44.83;;;;;;;7.10;42.17;93811.53;2071299;69;20152;-67
2022/01/25 13:12:54;;;;;;;35.78;17.35;;;;;;;6.61;43.05;93807.06;2071412;69;20158;-78
2022/01/25 13:16:06;;;;;;;48.65;18.88;;;;;;;6.49;42.95;93803.88;2071580;69;20187;-68
2022/01/25 13:18:14;;;;;;;44.97;23.52;;;;;;;6.57;43.22;93801.09;2069947;69;20279;-75
2022/01/25 13:20:43;;;;;;;41.10;17.67;;;;;;;6.60;43.73;93795.13;2071626;69;20748;-69